createdAt,value
2022-08-31T00:00:15.740Z,1.80
2022-08-31T00:03:26.699Z,2.00
2022-08-31T00:06:03.182Z,1.60
2022-08-31T00:08:36.937Z,1.90
2022-08-31T00:11:14.237Z,2.20
2022-08-31T00:13:48.079Z,1.50
2022-08-31T00:16:22.425Z,1.50
2022-08-31T00:18:56.046Z,1.70
2022-08-31T00:21:31.302Z,2.00
2022-08-31T00:24:05.144Z,2.70
2022-08-31T00:26:38.814Z,1.60
2022-08-31T00:29:12.604Z,1.60
2022-08-31T00:31:45.794Z,1.80
2022-08-31T00:34:20.076Z,2.20
2022-08-31T00:36:54.101Z,1.80
2022-08-31T00:39:27.304Z,2.30
2022-08-31T00:42:00.742Z,1.80
2022-08-31T00:44:34.214Z,1.90
2022-08-31T00:47:08.512Z,1.70
2022-08-31T00:49:47.027Z,2.20
2022-08-31T00:54:58.349Z,2.10
2022-08-31T00:57:41.546Z,1.90
2022-08-31T01:00:18.989Z,1.50
2022-08-31T01:02:52.733Z,1.70
2022-08-31T01:05:26.988Z,1.60
2022-08-31T01:08:01.739Z,1.70
2022-08-31T01:10:38.841Z,1.90
2022-08-31T01:13:13.980Z,1.90
2022-08-31T01:15:53.987Z,1.30
2022-08-31T01:18:28.270Z,1.70
2022-08-31T01:21:11.002Z,1.80
2022-08-31T01:23:46.028Z,1.50
2022-08-31T01:26:22.584Z,2.00
2022-08-31T01:29:01.056Z,1.90
2022-08-31T01:31:38.349Z,1.90
2022-08-31T01:34:13.260Z,1.60
2022-08-31T01:36:48.466Z,1.90
2022-08-31T01:39:22.789Z,1.80
2022-08-31T01:41:57.059Z,1.80
2022-08-31T01:44:31.013Z,2.30
2022-08-31T01:47:04.473Z,1.80
2022-08-31T01:49:38.045Z,1.80
2022-08-31T01:52:11.399Z,1.70
2022-08-31T01:54:45.919Z,1.90
2022-08-31T01:57:19.233Z,1.80
2022-08-31T02:00:23.375Z,2.10
2022-08-31T02:02:56.910Z,2.00
2022-08-31T02:05:31.222Z,2.10
2022-08-31T02:08:07.616Z,1.90
2022-08-31T02:10:41.462Z,1.80
2022-08-31T02:13:16.646Z,2.10
2022-08-31T02:15:51.489Z,2.00
2022-08-31T02:18:25.094Z,2.40
2022-08-31T02:20:58.577Z,2.10
2022-08-31T02:23:33.561Z,2.00
2022-08-31T02:26:07.130Z,2.20
2022-08-31T02:28:40.464Z,1.90
2022-08-31T02:31:15.240Z,2.00
2022-08-31T02:33:53.168Z,2.80
2022-08-31T02:36:27.112Z,1.60
2022-08-31T02:39:01.344Z,1.90
2022-08-31T02:41:35.411Z,2.00
2022-08-31T02:44:10.019Z,2.00
2022-08-31T02:46:43.712Z,2.30
2022-08-31T02:49:41.819Z,1.80
2022-08-31T02:52:15.747Z,1.80
2022-08-31T02:54:49.058Z,1.90
2022-08-31T02:57:23.510Z,1.80
2022-08-31T02:59:56.969Z,1.70
2022-08-31T03:02:33.464Z,1.70
2022-08-31T03:05:08.602Z,1.70
2022-08-31T03:07:43.550Z,1.60
2022-08-31T03:10:18.135Z,1.80
2022-08-31T03:12:51.802Z,1.80
2022-08-31T03:15:26.909Z,1.70
2022-08-31T03:18:01.090Z,2.30
2022-08-31T03:20:40.290Z,1.70
2022-08-31T03:23:15.809Z,1.60
2022-08-31T03:25:49.309Z,2.00
2022-08-31T03:28:22.766Z,2.00
2022-08-31T03:31:12.845Z,3.00
2022-08-31T03:33:46.310Z,2.00
2022-08-31T03:36:20.133Z,1.70
2022-08-31T03:38:53.251Z,1.80
2022-08-31T03:41:27.813Z,2.10
2022-08-31T03:44:02.287Z,2.00
2022-08-31T03:46:36.107Z,2.20
2022-08-31T03:49:09.962Z,1.80
2022-08-31T03:51:49.802Z,1.80
2022-08-31T03:54:25.415Z,1.90
2022-08-31T03:56:59.226Z,2.10
2022-08-31T03:59:32.825Z,1.80
2022-08-31T04:02:25.511Z,1.70
2022-08-31T04:05:18.349Z,2.30
2022-08-31T04:08:10.336Z,2.10
2022-08-31T04:11:20.179Z,1.80
2022-08-31T04:14:32.256Z,2.00
2022-08-31T04:17:28.523Z,1.70
2022-08-31T04:20:10.913Z,2.10
2022-08-31T04:22:50.339Z,2.00
2022-08-31T04:25:44.183Z,2.00
2022-08-31T04:28:17.529Z,1.90
2022-08-31T04:30:51.946Z,2.40
2022-08-31T04:33:26.922Z,1.80
2022-08-31T04:36:00.499Z,2.20
2022-08-31T04:38:33.501Z,2.40
2022-08-31T04:41:10.842Z,2.50
2022-08-31T04:43:47.896Z,1.70
2022-08-31T04:46:22.353Z,1.90
2022-08-31T04:48:56.193Z,1.70
2022-08-31T04:51:32.133Z,1.80
2022-08-31T04:54:05.799Z,1.80
2022-08-31T04:56:42.971Z,1.80
2022-08-31T04:59:18.467Z,1.60
2022-08-31T05:02:08.457Z,1.80
2022-08-31T05:04:48.379Z,1.60
2022-08-31T05:07:21.943Z,1.50
2022-08-31T05:09:55.015Z,1.80
2022-08-31T05:12:29.884Z,1.70
2022-08-31T05:15:03.462Z,1.80
2022-08-31T05:17:37.016Z,1.50
2022-08-31T05:20:11.201Z,2.00
2022-08-31T05:22:44.890Z,1.90
2022-08-31T05:25:18.129Z,1.70
2022-08-31T05:27:51.255Z,2.20
2022-08-31T05:30:27.795Z,2.20
2022-08-31T05:33:09.143Z,2.00
2022-08-31T05:35:42.560Z,2.00
2022-08-31T05:38:15.829Z,1.70
2022-08-31T05:40:55.783Z,1.70
2022-08-31T05:43:29.856Z,2.10
2022-08-31T05:46:08.100Z,2.20
2022-08-31T05:48:49.441Z,1.50
2022-08-31T05:51:24.352Z,1.70
2022-08-31T05:53:59.619Z,2.90
2022-08-31T05:56:33.271Z,2.00
2022-08-31T05:59:07.073Z,1.70
2022-08-31T06:01:42.478Z,2.40
2022-08-31T06:04:19.127Z,2.10
2022-08-31T06:06:52.487Z,2.00
2022-08-31T06:09:28.422Z,1.60
2022-08-31T06:12:03.787Z,1.90
2022-08-31T06:14:36.914Z,1.50
2022-08-31T06:17:10.582Z,1.70
2022-08-31T06:19:43.791Z,2.00
2022-08-31T06:22:19.512Z,2.00
2022-08-31T06:24:53.345Z,1.80
2022-08-31T06:27:26.924Z,1.70
2022-08-31T06:30:04.931Z,1.80
2022-08-31T06:32:41.146Z,1.60
2022-08-31T06:35:15.341Z,1.70
2022-08-31T06:38:12.094Z,1.50
2022-08-31T06:40:52.928Z,1.50
2022-08-31T06:44:00.359Z,1.60
2022-08-31T06:46:56.768Z,1.50
2022-08-31T06:49:32.530Z,1.40
2022-08-31T06:52:06.426Z,1.20
2022-08-31T06:54:40.542Z,1.10
2022-08-31T06:57:32.764Z,1.70
2022-08-31T07:00:27.976Z,1.60
2022-08-31T07:03:34.739Z,1.80
2022-08-31T07:06:12.118Z,1.40
2022-08-31T07:08:49.946Z,1.70
2022-08-31T07:11:29.659Z,1.90
2022-08-31T07:14:05.002Z,2.10
2022-08-31T07:16:40.751Z,2.20
2022-08-31T07:19:17.751Z,2.50
2022-08-31T07:22:06.424Z,2.20
2022-08-31T07:24:40.549Z,1.90
2022-08-31T07:27:18.965Z,1.80
2022-08-31T07:30:00.641Z,1.80
2022-08-31T07:32:56.480Z,1.50
2022-08-31T07:35:39.886Z,1.50
2022-08-31T07:38:44.416Z,1.60
2022-08-31T07:41:36.042Z,1.60
2022-08-31T07:44:11.574Z,1.30
2022-08-31T07:46:45.658Z,1.40
2022-08-31T07:49:21.673Z,1.60
2022-08-31T07:55:12.832Z,1.30
2022-08-31T07:57:59.750Z,1.20
2022-08-31T08:00:36.546Z,1.80
2022-08-31T08:03:13.333Z,1.40
2022-08-31T08:06:08.743Z,1.30
2022-08-31T08:09:22.312Z,1.30
2022-08-31T08:12:10.430Z,1.10
2022-08-31T08:15:15.325Z,1.30
2022-08-31T08:18:13.806Z,1.40
2022-08-31T08:20:53.924Z,1.40
2022-08-31T08:23:28.527Z,1.10
2022-08-31T08:26:21.319Z,1.30
2022-08-31T08:29:08.542Z,1.10
2022-08-31T08:31:56.310Z,1.10
2022-08-31T08:34:36.574Z,1.20
2022-08-31T08:37:11.354Z,1.10
2022-08-31T08:39:45.688Z,1.00
2022-08-31T08:42:26.309Z,1.40
2022-08-31T08:44:59.981Z,1.00
2022-08-31T08:47:39.207Z,1.20
2022-08-31T08:50:16.456Z,1.00
2022-08-31T08:52:51.398Z,1.20
2022-08-31T08:55:32.537Z,1.20
2022-08-31T08:58:08.412Z,1.00
2022-08-31T09:00:46.948Z,1.10
2022-08-31T09:03:33.712Z,1.00
2022-08-31T09:06:54.867Z,0.90
2022-08-31T09:09:39.619Z,0.90
2022-08-31T09:12:26.617Z,1.20
2022-08-31T09:15:37.009Z,1.10
2022-08-31T09:18:29.290Z,1.00
2022-08-31T09:21:22.378Z,1.00
2022-08-31T09:24:05.087Z,1.80
2022-08-31T09:27:05.508Z,0.90
2022-08-31T09:29:45.477Z,0.90
2022-08-31T09:32:31.774Z,1.00
2022-08-31T09:35:07.115Z,0.90
2022-08-31T09:37:46.704Z,1.00
2022-08-31T09:40:24.450Z,1.30
2022-08-31T09:43:08.724Z,1.20
2022-08-31T09:45:56.738Z,2.10
2022-08-31T09:48:45.727Z,1.60
2022-08-31T09:51:28.594Z,1.40
2022-08-31T09:54:24.375Z,1.20
2022-08-31T09:57:00.202Z,1.10
2022-08-31T09:59:38.669Z,1.00
2022-08-31T10:02:32.285Z,1.10
2022-08-31T10:05:08.991Z,1.20
2022-08-31T10:07:58.747Z,0.80
2022-08-31T10:10:35.307Z,1.00
2022-08-31T10:13:15.408Z,1.00
2022-08-31T10:15:54.547Z,1.70
2022-08-31T10:18:38.498Z,0.90
2022-08-31T10:21:18.445Z,1.10
2022-08-31T10:23:57.897Z,1.00
2022-08-31T10:26:38.627Z,0.80
2022-08-31T10:29:21.169Z,0.90
2022-08-31T10:32:02.384Z,1.10
2022-08-31T10:34:57.217Z,0.90
2022-08-31T10:37:37.242Z,0.70
2022-08-31T10:40:15.371Z,0.90
2022-08-31T10:43:00.205Z,0.90
2022-08-31T10:45:38.087Z,0.90
2022-08-31T10:48:13.374Z,1.10
2022-08-31T10:50:51.874Z,0.80
2022-08-31T10:56:24.024Z,1.00
2022-08-31T10:59:22.819Z,0.80
2022-08-31T11:02:03.987Z,0.80
2022-08-31T11:04:58.829Z,0.70
2022-08-31T11:07:42.669Z,1.10
2022-08-31T11:10:25.419Z,0.90
2022-08-31T11:13:03.837Z,1.00
2022-08-31T11:15:58.633Z,1.00
2022-08-31T11:18:56.406Z,1.10
2022-08-31T11:21:56.059Z,0.90
2022-08-31T11:24:46.374Z,0.80
2022-08-31T11:27:27.934Z,0.80
2022-08-31T11:30:08.464Z,0.90
2022-08-31T11:32:46.857Z,1.00
2022-08-31T11:36:07.005Z,1.40
2022-08-31T11:38:52.677Z,0.70
2022-08-31T11:41:45.451Z,1.10
2022-08-31T11:44:54.460Z,1.00
2022-08-31T11:47:44.845Z,1.20
2022-08-31T11:50:45.002Z,0.70
2022-08-31T11:53:33.303Z,0.90
2022-08-31T11:56:07.936Z,1.10
2022-08-31T11:58:45.031Z,0.90
2022-08-31T12:01:43.417Z,0.80
2022-08-31T12:04:46.543Z,3.60
2022-08-31T12:07:29.172Z,1.00
2022-08-31T12:10:24.093Z,1.00
2022-08-31T12:13:20.275Z,1.30
2022-08-31T12:16:21.353Z,1.00
2022-08-31T12:19:41.333Z,1.00
2022-08-31T12:22:46.445Z,1.00
2022-08-31T12:25:30.584Z,1.10
2022-08-31T12:28:14.598Z,0.80
2022-08-31T12:30:55.819Z,0.80
2022-08-31T12:33:31.151Z,0.80
2022-08-31T12:36:17.909Z,0.90
2022-08-31T12:39:09.980Z,1.00
2022-08-31T12:41:50.058Z,0.90
2022-08-31T12:44:27.471Z,1.10
2022-08-31T12:47:05.939Z,0.90
2022-08-31T12:49:57.851Z,1.10
2022-08-31T12:52:57.511Z,0.80
2022-08-31T12:55:42.688Z,1.10
2022-08-31T12:58:55.944Z,0.90
2022-08-31T13:01:30.068Z,0.80
2022-08-31T13:04:05.130Z,1.00
2022-08-31T13:06:41.107Z,1.00
2022-08-31T13:09:28.056Z,0.80
2022-08-31T13:12:06.121Z,1.00
2022-08-31T13:14:45.461Z,0.90
2022-08-31T13:17:22.257Z,1.00
2022-08-31T13:19:58.120Z,0.70
2022-08-31T13:22:34.317Z,0.80
2022-08-31T13:25:24.542Z,1.30
2022-08-31T13:27:57.908Z,0.90
2022-08-31T13:30:34.851Z,0.70
2022-08-31T13:33:27.408Z,1.00
2022-08-31T13:36:06.337Z,0.90
2022-08-31T13:38:50.502Z,1.00
2022-08-31T13:41:34.880Z,0.80
2022-08-31T13:44:15.172Z,0.90
2022-08-31T13:47:00.582Z,0.90
2022-08-31T13:49:38.272Z,0.70
2022-08-31T13:52:21.559Z,0.80
2022-08-31T13:55:03.690Z,0.60
2022-08-31T13:57:38.718Z,0.90
2022-08-31T14:00:35.873Z,1.30
2022-08-31T14:03:33.621Z,1.00
2022-08-31T14:06:28.384Z,0.80
2022-08-31T14:09:05.562Z,1.00
2022-08-31T14:11:39.615Z,0.80
2022-08-31T14:14:13.868Z,0.90
2022-08-31T14:16:52.434Z,0.90
2022-08-31T14:19:39.162Z,0.90
2022-08-31T14:22:31.667Z,0.80
2022-08-31T14:25:05.423Z,1.10
2022-08-31T14:27:43.612Z,1.10
2022-08-31T14:30:17.661Z,0.90
2022-08-31T14:32:51.654Z,0.90
2022-08-31T14:35:27.862Z,1.30
2022-08-31T14:38:01.266Z,1.10
2022-08-31T14:40:37.326Z,1.20
2022-08-31T14:43:13.179Z,1.00
2022-08-31T14:45:46.929Z,1.40
2022-08-31T14:48:20.482Z,1.00
2022-08-31T14:50:54.453Z,1.30
2022-08-31T14:53:36.853Z,0.90
2022-08-31T14:56:17.933Z,0.90
2022-08-31T14:58:52.676Z,1.20
2022-08-31T15:01:30.668Z,1.00
2022-08-31T15:04:05.989Z,1.10
2022-08-31T15:06:40.507Z,0.90
2022-08-31T15:09:14.346Z,1.00
2022-08-31T15:11:48.440Z,0.90
2022-08-31T15:14:22.707Z,1.10
2022-08-31T15:17:01.322Z,0.90
2022-08-31T15:19:37.743Z,1.20
2022-08-31T15:22:11.706Z,1.20
2022-08-31T15:24:45.660Z,0.90
2022-08-31T15:27:21.061Z,1.20
2022-08-31T15:29:56.576Z,1.20
2022-08-31T15:32:31.304Z,2.00
2022-08-31T15:35:04.730Z,1.20
2022-08-31T15:37:40.481Z,1.30
2022-08-31T15:40:14.792Z,1.10
2022-08-31T15:42:50.541Z,1.00
2022-08-31T15:45:26.053Z,1.00
2022-08-31T15:48:17.537Z,1.10
2022-08-31T15:50:54.125Z,0.90
2022-08-31T15:53:30.755Z,1.00
2022-08-31T15:56:09.659Z,0.80
2022-08-31T15:58:43.325Z,0.80
2022-08-31T16:01:18.044Z,1.00
2022-08-31T16:03:55.417Z,0.80
2022-08-31T16:06:32.756Z,0.80
2022-08-31T16:09:06.405Z,0.80
2022-08-31T16:11:40.777Z,0.80
2022-08-31T16:14:15.901Z,1.00
2022-08-31T16:16:51.554Z,0.70
2022-08-31T16:19:35.035Z,1.10
2022-08-31T16:22:10.044Z,1.00
2022-08-31T16:24:44.622Z,0.80
2022-08-31T16:27:20.673Z,0.80
2022-08-31T16:29:54.375Z,1.10
2022-08-31T16:32:28.149Z,0.90
2022-08-31T16:35:01.866Z,1.10
2022-08-31T16:37:36.932Z,0.90
2022-08-31T16:40:31.083Z,0.90
2022-08-31T16:43:05.814Z,1.30
2022-08-31T16:45:41.226Z,1.00
2022-08-31T16:48:32.778Z,1.00
2022-08-31T16:51:15.815Z,1.00
2022-08-31T16:53:51.096Z,1.00
2022-08-31T16:56:26.453Z,1.20
2022-08-31T16:59:00.700Z,1.50
2022-08-31T17:01:35.947Z,1.50
2022-08-31T17:04:12.769Z,1.30
2022-08-31T17:06:48.744Z,1.30
2022-08-31T17:09:27.251Z,1.50
2022-08-31T17:12:02.626Z,1.10
2022-08-31T17:14:44.214Z,1.30
2022-08-31T17:17:19.887Z,1.20
2022-08-31T17:19:54.505Z,1.50
2022-08-31T17:22:32.922Z,1.10
2022-08-31T17:25:08.614Z,1.20
2022-08-31T17:27:41.874Z,1.10
2022-08-31T17:30:19.325Z,1.50
2022-08-31T17:32:52.531Z,1.30
2022-08-31T17:35:26.364Z,1.40
2022-08-31T17:38:00.214Z,1.30
2022-08-31T17:40:34.128Z,1.30
2022-08-31T17:43:08.217Z,1.00
2022-08-31T17:45:41.477Z,1.20
2022-08-31T17:48:14.717Z,1.40
2022-08-31T17:50:49.614Z,1.40
2022-08-31T17:53:23.157Z,1.20
2022-08-31T17:55:59.662Z,1.60
2022-08-31T17:58:32.888Z,1.70
2022-08-31T18:01:07.534Z,1.70
2022-08-31T18:03:41.217Z,1.50
2022-08-31T18:06:18.113Z,1.50
2022-08-31T18:08:51.972Z,1.40
2022-08-31T18:11:26.459Z,2.10
2022-08-31T18:14:00.983Z,1.50
2022-08-31T18:16:34.270Z,2.10
2022-08-31T18:19:07.750Z,2.00
2022-08-31T18:21:41.817Z,2.30
2022-08-31T18:24:16.133Z,1.70
2022-08-31T18:26:51.002Z,1.60
2022-08-31T18:29:25.316Z,1.70
2022-08-31T18:31:59.917Z,1.50
2022-08-31T18:34:35.419Z,1.50
2022-08-31T18:37:09.914Z,1.60
2022-08-31T18:40:05.240Z,1.50
2022-08-31T18:42:57.655Z,1.50
2022-08-31T18:45:32.034Z,1.20
2022-08-31T18:48:25.190Z,1.40
2022-08-31T18:50:59.406Z,1.10
2022-08-31T18:53:34.991Z,1.20
2022-08-31T18:56:12.707Z,1.10
2022-08-31T18:58:46.776Z,1.20
2022-08-31T19:01:20.910Z,1.20
2022-08-31T19:03:55.068Z,1.20
2022-08-31T19:06:29.781Z,1.20
2022-08-31T19:09:04.067Z,1.30
2022-08-31T19:11:47.573Z,1.40
2022-08-31T19:14:23.613Z,1.20
2022-08-31T19:17:04.006Z,1.30
2022-08-31T19:19:38.720Z,1.40
2022-08-31T19:22:13.741Z,1.20
2022-08-31T19:24:48.173Z,1.20
2022-08-31T19:27:22.520Z,1.40
2022-08-31T19:29:58.545Z,1.40
2022-08-31T19:32:32.388Z,1.00
2022-08-31T19:35:12.768Z,1.30
2022-08-31T19:37:47.960Z,1.20
2022-08-31T19:40:22.143Z,1.10
2022-08-31T19:43:00.102Z,1.20
2022-08-31T19:45:45.145Z,1.40
2022-08-31T19:48:24.227Z,1.50
2022-08-31T19:50:58.218Z,1.00
2022-08-31T19:53:32.196Z,1.20
2022-08-31T19:56:06.795Z,1.50
2022-08-31T19:58:41.159Z,1.40
2022-08-31T20:01:14.665Z,1.90
2022-08-31T20:03:48.301Z,1.30
2022-08-31T20:06:23.640Z,1.20
2022-08-31T20:08:57.146Z,1.60
2022-08-31T20:11:32.175Z,1.40
2022-08-31T20:14:06.642Z,1.40
2022-08-31T20:16:43.646Z,1.40
2022-08-31T20:19:25.190Z,1.30
2022-08-31T20:22:04.044Z,1.30
2022-08-31T20:24:43.748Z,1.60
2022-08-31T20:27:19.744Z,1.50
2022-08-31T20:29:54.057Z,2.00
2022-08-31T20:32:29.392Z,1.60
2022-08-31T20:35:03.487Z,1.50
2022-08-31T20:37:37.047Z,1.60
2022-08-31T20:40:17.695Z,1.90
2022-08-31T20:42:51.847Z,1.70
2022-08-31T20:45:25.636Z,2.20
2022-08-31T20:48:16.288Z,1.70
2022-08-31T20:50:53.148Z,2.00
2022-08-31T20:53:42.463Z,1.40
2022-08-31T20:56:19.028Z,1.60
2022-08-31T20:58:52.377Z,1.60
2022-08-31T21:01:26.540Z,1.50
2022-08-31T21:04:00.695Z,1.80
2022-08-31T21:06:36.186Z,1.60
2022-08-31T21:09:10.370Z,1.50
2022-08-31T21:11:44.398Z,2.00
2022-08-31T21:14:20.367Z,1.70
2022-08-31T21:16:54.430Z,1.60
2022-08-31T21:19:28.613Z,1.80
2022-08-31T21:22:05.784Z,1.30
2022-08-31T21:24:43.467Z,1.70
2022-08-31T21:27:19.077Z,1.60
2022-08-31T21:29:52.783Z,1.50
2022-08-31T21:32:26.467Z,1.40
2022-08-31T21:35:00.407Z,1.60
2022-08-31T21:37:33.875Z,1.50
2022-08-31T21:40:08.646Z,1.50
2022-08-31T21:42:41.782Z,1.40
2022-08-31T21:45:16.059Z,1.50
2022-08-31T21:47:49.389Z,1.40
2022-08-31T21:50:22.753Z,1.30
2022-08-31T21:53:00.140Z,1.40
2022-08-31T21:55:34.118Z,1.40
2022-08-31T21:58:07.230Z,1.20
2022-08-31T22:00:42.516Z,1.20
2022-08-31T22:03:19.859Z,1.10
2022-08-31T22:05:53.871Z,1.30
2022-08-31T22:08:27.661Z,1.10
2022-08-31T22:11:01.647Z,1.10
2022-08-31T22:13:37.412Z,1.30
2022-08-31T22:16:19.361Z,1.10
2022-08-31T22:19:01.374Z,1.20
2022-08-31T22:21:37.448Z,1.20
2022-08-31T22:24:13.062Z,1.10
2022-08-31T22:27:03.657Z,1.20
2022-08-31T22:29:40.230Z,1.00
2022-08-31T22:32:15.978Z,1.20
2022-08-31T22:34:49.247Z,1.10
2022-08-31T22:37:22.613Z,1.10
2022-08-31T22:39:56.138Z,1.10
2022-08-31T22:42:29.236Z,1.10
2022-08-31T22:45:02.931Z,1.30
2022-08-31T22:47:49.321Z,1.10
2022-08-31T22:50:23.527Z,1.60
2022-08-31T22:52:56.858Z,1.10
2022-08-31T22:55:30.607Z,1.20
2022-08-31T22:58:04.669Z,1.20
2022-08-31T23:00:38.197Z,1.00
2022-08-31T23:03:15.338Z,0.90
2022-08-31T23:05:49.006Z,0.90
2022-08-31T23:08:22.425Z,1.10
2022-08-31T23:10:57.037Z,1.10
2022-08-31T23:13:52.058Z,1.00
2022-08-31T23:16:28.047Z,1.10
2022-08-31T23:19:03.463Z,1.00
2022-08-31T23:21:37.269Z,1.20
2022-08-31T23:24:11.174Z,1.30
2022-08-31T23:26:45.145Z,1.00
2022-08-31T23:29:21.165Z,1.50
2022-08-31T23:31:55.259Z,1.10
2022-08-31T23:34:28.663Z,1.20
2022-08-31T23:37:03.183Z,1.40
2022-08-31T23:39:37.722Z,1.20
2022-08-31T23:42:12.471Z,0.90
2022-08-31T23:44:47.960Z,1.10
2022-08-31T23:47:23.413Z,1.10
2022-08-31T23:49:58.222Z,1.10
2022-08-31T23:52:34.773Z,1.50
2022-08-31T23:55:09.932Z,1.40
2022-08-31T23:57:48.203Z,1.60
